sensor_id;sensor_type;location;lat;lon;timestamp;P1;durP1;ratioP1;P2;durP2;ratioP2
54871;SDS011;43914;57.680;11.982;2023-09-19T00:00:34;23.60;;;13.10;;
54871;SDS011;43914;57.680;11.982;2023-09-19T00:03:01;26.20;;;14.90;;
54871;SDS011;43914;57.680;11.982;2023-09-19T00:05:26;23.20;;;13.60;;
54871;SDS011;43914;57.680;11.982;2023-09-19T00:07:56;25.20;;;15.30;;
54871;SDS011;43914;57.680;11.982;2023-09-19T00:10:26;22.80;;;13.10;;
54871;SDS011;43914;57.680;11.982;2023-09-19T00:12:56;23.30;;;14.80;;
54871;SDS011;43914;57.680;11.982;2023-09-19T00:15:24;23.20;;;14.00;;
54871;SDS011;43914;57.680;11.982;2023-09-19T00:17:54;23.00;;;14.20;;
54871;SDS011;43914;57.680;11.982;2023-09-19T00:20:20;22.60;;;13.90;;
54871;SDS011;43914;57.680;11.982;2023-09-19T00:22:48;20.70;;;12.00;;
54871;SDS011;43914;57.680;11.982;2023-09-19T00:25:18;25.40;;;15.00;;
54871;SDS011;43914;57.680;11.982;2023-09-19T00:27:45;24.30;;;15.40;;
54871;SDS011;43914;57.680;11.982;2023-09-19T00:30:15;22.90;;;15.10;;
54871;SDS011;43914;57.680;11.982;2023-09-19T00:32:44;22.00;;;15.20;;
54871;SDS011;43914;57.680;11.982;2023-09-19T00:35:13;24.20;;;16.90;;
54871;SDS011;43914;57.680;11.982;2023-09-19T00:37:44;24.20;;;16.20;;
54871;SDS011;43914;57.680;11.982;2023-09-19T00:40:11;22.20;;;15.30;;
54871;SDS011;43914;57.680;11.982;2023-09-19T00:42:40;21.90;;;14.80;;
54871;SDS011;43914;57.680;11.982;2023-09-19T00:45:10;23.00;;;15.40;;
54871;SDS011;43914;57.680;11.982;2023-09-19T00:47:47;24.10;;;15.60;;
54871;SDS011;43914;57.680;11.982;2023-09-19T00:50:15;24.30;;;16.60;;
54871;SDS011;43914;57.680;11.982;2023-09-19T00:52:47;22.50;;;16.30;;
54871;SDS011;43914;57.680;11.982;2023-09-19T00:55:15;27.60;;;15.60;;
54871;SDS011;43914;57.680;11.982;2023-09-19T00:57:45;21.50;;;15.00;;
54871;SDS011;43914;57.680;11.982;2023-09-19T01:00:12;21.90;;;15.20;;
54871;SDS011;43914;57.680;11.982;2023-09-19T01:02:41;24.70;;;16.20;;
54871;SDS011;43914;57.680;11.982;2023-09-19T01:05:09;24.80;;;15.40;;
54871;SDS011;43914;57.680;11.982;2023-09-19T01:07:36;22.00;;;14.50;;
54871;SDS011;43914;57.680;11.982;2023-09-19T01:10:06;23.10;;;16.10;;
54871;SDS011;43914;57.680;11.982;2023-09-19T01:12:41;23.90;;;15.30;;
54871;SDS011;43914;57.680;11.982;2023-09-19T01:15:17;20.90;;;14.60;;
54871;SDS011;43914;57.680;11.982;2023-09-19T01:17:57;21.20;;;15.10;;
54871;SDS011;43914;57.680;11.982;2023-09-19T01:23:21;24.60;;;17.20;;
54871;SDS011;43914;57.680;11.982;2023-09-19T01:26:17;24.20;;;15.90;;
54871;SDS011;43914;57.680;11.982;2023-09-19T01:29:01;26.10;;;15.90;;
54871;SDS011;43914;57.680;11.982;2023-09-19T01:32:04;23.00;;;15.40;;
54871;SDS011;43914;57.680;11.982;2023-09-19T01:34:47;23.10;;;15.70;;
54871;SDS011;43914;57.680;11.982;2023-09-19T01:37:17;23.70;;;15.90;;
54871;SDS011;43914;57.680;11.982;2023-09-19T01:39:51;20.40;;;13.30;;
54871;SDS011;43914;57.680;11.982;2023-09-19T01:45:28;26.40;;;16.10;;
54871;SDS011;43914;57.680;11.982;2023-09-19T01:48:25;23.30;;;15.40;;
54871;SDS011;43914;57.680;11.982;2023-09-19T01:51:00;20.60;;;14.80;;
54871;SDS011;43914;57.680;11.982;2023-09-19T01:53:41;25.00;;;15.40;;
54871;SDS011;43914;57.680;11.982;2023-09-19T01:56:16;20.60;;;15.00;;
54871;SDS011;43914;57.680;11.982;2023-09-19T01:58:51;24.20;;;16.30;;
54871;SDS011;43914;57.680;11.982;2023-09-19T02:01:22;23.30;;;15.70;;
54871;SDS011;43914;57.680;11.982;2023-09-19T02:03:50;23.00;;;15.40;;
54871;SDS011;43914;57.680;11.982;2023-09-19T02:06:16;24.70;;;15.90;;
54871;SDS011;43914;57.680;11.982;2023-09-19T02:08:43;26.70;;;17.00;;
54871;SDS011;43914;57.680;11.982;2023-09-19T02:11:10;26.30;;;17.60;;
54871;SDS011;43914;57.680;11.982;2023-09-19T02:13:36;27.70;;;16.50;;
54871;SDS011;43914;57.680;11.982;2023-09-19T02:16:03;24.00;;;17.00;;
54871;SDS011;43914;57.680;11.982;2023-09-19T02:18:29;26.80;;;16.10;;
54871;SDS011;43914;57.680;11.982;2023-09-19T02:21:02;26.20;;;16.30;;
54871;SDS011;43914;57.680;11.982;2023-09-19T02:23:47;21.30;;;14.50;;
54871;SDS011;43914;57.680;11.982;2023-09-19T02:26:13;26.10;;;17.00;;
54871;SDS011;43914;57.680;11.982;2023-09-19T02:28:39;27.70;;;17.50;;
54871;SDS011;43914;57.680;11.982;2023-09-19T02:31:05;28.30;;;17.00;;
54871;SDS011;43914;57.680;11.982;2023-09-19T02:33:31;23.70;;;16.10;;
54871;SDS011;43914;57.680;11.982;2023-09-19T02:35:58;21.30;;;14.90;;
54871;SDS011;43914;57.680;11.982;2023-09-19T02:38:25;19.90;;;12.80;;
54871;SDS011;43914;57.680;11.982;2023-09-19T02:40:54;21.50;;;12.00;;
54871;SDS011;43914;57.680;11.982;2023-09-19T02:43:20;21.90;;;11.40;;
54871;SDS011;43914;57.680;11.982;2023-09-19T02:45:47;18.10;;;11.40;;
54871;SDS011;43914;57.680;11.982;2023-09-19T02:48:18;20.90;;;10.10;;
54871;SDS011;43914;57.680;11.982;2023-09-19T02:50:44;17.20;;;9.80;;
54871;SDS011;43914;57.680;11.982;2023-09-19T02:53:10;15.30;;;8.50;;
54871;SDS011;43914;57.680;11.982;2023-09-19T02:55:38;17.10;;;8.30;;
54871;SDS011;43914;57.680;11.982;2023-09-19T02:58:05;16.70;;;8.80;;
54871;SDS011;43914;57.680;11.982;2023-09-19T03:00:44;16.90;;;7.80;;
54871;SDS011;43914;57.680;11.982;2023-09-19T03:03:12;13.80;;;7.10;;
54871;SDS011;43914;57.680;11.982;2023-09-19T03:05:38;15.40;;;6.60;;
54871;SDS011;43914;57.680;11.982;2023-09-19T03:08:03;15.90;;;6.90;;
54871;SDS011;43914;57.680;11.982;2023-09-19T03:10:29;15.70;;;5.90;;
54871;SDS011;43914;57.680;11.982;2023-09-19T03:12:56;15.50;;;5.70;;
54871;SDS011;43914;57.680;11.982;2023-09-19T03:15:23;15.40;;;5.60;;
54871;SDS011;43914;57.680;11.982;2023-09-19T03:17:49;14.30;;;4.90;;
54871;SDS011;43914;57.680;11.982;2023-09-19T03:20:15;14.40;;;5.40;;
54871;SDS011;43914;57.680;11.982;2023-09-19T03:22:44;13.00;;;4.80;;
54871;SDS011;43914;57.680;11.982;2023-09-19T03:25:11;12.10;;;4.60;;
54871;SDS011;43914;57.680;11.982;2023-09-19T03:27:39;15.40;;;4.50;;
54871;SDS011;43914;57.680;11.982;2023-09-19T03:30:05;10.60;;;4.80;;
54871;SDS011;43914;57.680;11.982;2023-09-19T03:32:36;10.90;;;4.00;;
54871;SDS011;43914;57.680;11.982;2023-09-19T03:35:03;12.70;;;4.20;;
54871;SDS011;43914;57.680;11.982;2023-09-19T03:37:34;11.70;;;4.10;;
54871;SDS011;43914;57.680;11.982;2023-09-19T03:40:00;14.80;;;4.50;;
54871;SDS011;43914;57.680;11.982;2023-09-19T03:42:30;14.20;;;3.80;;
54871;SDS011;43914;57.680;11.982;2023-09-19T03:44:56;18.10;;;3.90;;
54871;SDS011;43914;57.680;11.982;2023-09-19T03:47:22;11.20;;;3.30;;
54871;SDS011;43914;57.680;11.982;2023-09-19T03:49:49;10.70;;;3.10;;
54871;SDS011;43914;57.680;11.982;2023-09-19T03:52:14;16.60;;;3.40;;
54871;SDS011;43914;57.680;11.982;2023-09-19T03:54:42;13.90;;;3.10;;
54871;SDS011;43914;57.680;11.982;2023-09-19T03:57:09;12.20;;;2.80;;
54871;SDS011;43914;57.680;11.982;2023-09-19T03:59:35;11.90;;;3.10;;
54871;SDS011;43914;57.680;11.982;2023-09-19T04:02:01;14.30;;;3.10;;
54871;SDS011;43914;57.680;11.982;2023-09-19T04:04:27;13.50;;;2.80;;
54871;SDS011;43914;57.680;11.982;2023-09-19T04:06:54;11.10;;;2.60;;
54871;SDS011;43914;57.680;11.982;2023-09-19T04:09:19;15.10;;;3.50;;
54871;SDS011;43914;57.680;11.982;2023-09-19T04:11:45;14.30;;;3.40;;
54871;SDS011;43914;57.680;11.982;2023-09-19T04:14:10;12.80;;;3.10;;
54871;SDS011;43914;57.680;11.982;2023-09-19T04:16:36;11.80;;;3.00;;
54871;SDS011;43914;57.680;11.982;2023-09-19T04:19:02;17.00;;;3.40;;
54871;SDS011;43914;57.680;11.982;2023-09-19T04:21:28;11.20;;;2.60;;
54871;SDS011;43914;57.680;11.982;2023-09-19T04:23:54;18.10;;;3.40;;
54871;SDS011;43914;57.680;11.982;2023-09-19T04:26:19;15.60;;;3.50;;
54871;SDS011;43914;57.680;11.982;2023-09-19T04:28:46;14.90;;;3.40;;
54871;SDS011;43914;57.680;11.982;2023-09-19T04:31:12;17.50;;;3.20;;
54871;SDS011;43914;57.680;11.982;2023-09-19T04:33:39;12.20;;;3.30;;
54871;SDS011;43914;57.680;11.982;2023-09-19T04:36:05;17.00;;;3.30;;
54871;SDS011;43914;57.680;11.982;2023-09-19T04:38:32;10.40;;;2.80;;
54871;SDS011;43914;57.680;11.982;2023-09-19T04:40:58;14.60;;;3.10;;
54871;SDS011;43914;57.680;11.982;2023-09-19T04:43:25;11.30;;;2.30;;
54871;SDS011;43914;57.680;11.982;2023-09-19T04:45:51;14.90;;;2.40;;
54871;SDS011;43914;57.680;11.982;2023-09-19T04:48:22;12.20;;;2.50;;
54871;SDS011;43914;57.680;11.982;2023-09-19T04:50:49;15.70;;;2.50;;
54871;SDS011;43914;57.680;11.982;2023-09-19T04:53:16;15.50;;;2.00;;
54871;SDS011;43914;57.680;11.982;2023-09-19T04:55:44;12.30;;;1.90;;
54871;SDS011;43914;57.680;11.982;2023-09-19T04:58:09;9.90;;;1.90;;
54871;SDS011;43914;57.680;11.982;2023-09-19T05:00:35;8.50;;;1.60;;
54871;SDS011;43914;57.680;11.982;2023-09-19T05:03:01;10.10;;;1.50;;
54871;SDS011;43914;57.680;11.982;2023-09-19T05:05:29;10.50;;;2.10;;
54871;SDS011;43914;57.680;11.982;2023-09-19T05:07:56;11.20;;;1.80;;
54871;SDS011;43914;57.680;11.982;2023-09-19T05:10:21;9.50;;;1.40;;
54871;SDS011;43914;57.680;11.982;2023-09-19T05:12:47;12.50;;;1.50;;
54871;SDS011;43914;57.680;11.982;2023-09-19T05:15:13;11.90;;;1.80;;
54871;SDS011;43914;57.680;11.982;2023-09-19T05:17:49;10.30;;;1.50;;
54871;SDS011;43914;57.680;11.982;2023-09-19T05:20:16;16.90;;;2.10;;
54871;SDS011;43914;57.680;11.982;2023-09-19T05:22:43;10.60;;;1.80;;
54871;SDS011;43914;57.680;11.982;2023-09-19T05:25:11;12.60;;;1.80;;
54871;SDS011;43914;57.680;11.982;2023-09-19T05:27:46;10.20;;;1.90;;
54871;SDS011;43914;57.680;11.982;2023-09-19T05:30:12;9.50;;;1.80;;
54871;SDS011;43914;57.680;11.982;2023-09-19T05:32:40;10.70;;;1.70;;
54871;SDS011;43914;57.680;11.982;2023-09-19T05:35:06;8.30;;;1.30;;
54871;SDS011;43914;57.680;11.982;2023-09-19T05:37:35;8.60;;;1.60;;
54871;SDS011;43914;57.680;11.982;2023-09-19T05:40:02;11.80;;;2.00;;
54871;SDS011;43914;57.680;11.982;2023-09-19T05:42:34;8.70;;;1.60;;
54871;SDS011;43914;57.680;11.982;2023-09-19T05:45:03;9.00;;;1.80;;
54871;SDS011;43914;57.680;11.982;2023-09-19T05:47:31;13.30;;;1.90;;
54871;SDS011;43914;57.680;11.982;2023-09-19T05:49:57;13.10;;;2.00;;
54871;SDS011;43914;57.680;11.982;2023-09-19T05:52:24;13.10;;;2.20;;
54871;SDS011;43914;57.680;11.982;2023-09-19T05:54:50;10.40;;;1.90;;
54871;SDS011;43914;57.680;11.982;2023-09-19T05:57:15;11.50;;;2.00;;
54871;SDS011;43914;57.680;11.982;2023-09-19T05:59:41;9.60;;;1.70;;
54871;SDS011;43914;57.680;11.982;2023-09-19T06:02:08;8.40;;;1.60;;
54871;SDS011;43914;57.680;11.982;2023-09-19T06:04:35;8.80;;;1.60;;
54871;SDS011;43914;57.680;11.982;2023-09-19T06:07:00;11.20;;;1.80;;
54871;SDS011;43914;57.680;11.982;2023-09-19T06:09:29;9.20;;;1.50;;
54871;SDS011;43914;57.680;11.982;2023-09-19T06:11:57;8.70;;;1.60;;
54871;SDS011;43914;57.680;11.982;2023-09-19T06:14:28;12.30;;;1.30;;
54871;SDS011;43914;57.680;11.982;2023-09-19T06:16:53;6.00;;;1.50;;
54871;SDS011;43914;57.680;11.982;2023-09-19T06:19:19;10.90;;;1.90;;
54871;SDS011;43914;57.680;11.982;2023-09-19T06:21:48;6.50;;;1.20;;
54871;SDS011;43914;57.680;11.982;2023-09-19T06:24:14;9.50;;;1.50;;
54871;SDS011;43914;57.680;11.982;2023-09-19T06:26:40;9.60;;;1.70;;
54871;SDS011;43914;57.680;11.982;2023-09-19T06:29:06;9.30;;;1.60;;
54871;SDS011;43914;57.680;11.982;2023-09-19T06:31:33;8.70;;;1.40;;
54871;SDS011;43914;57.680;11.982;2023-09-19T06:33:59;7.20;;;1.10;;
54871;SDS011;43914;57.680;11.982;2023-09-19T06:36:24;5.90;;;1.30;;
54871;SDS011;43914;57.680;11.982;2023-09-19T06:38:51;4.20;;;0.80;;
54871;SDS011;43914;57.680;11.982;2023-09-19T06:41:17;6.60;;;1.20;;
54871;SDS011;43914;57.680;11.982;2023-09-19T06:43:43;11.40;;;1.70;;
54871;SDS011;43914;57.680;11.982;2023-09-19T06:46:09;11.10;;;1.70;;
54871;SDS011;43914;57.680;11.982;2023-09-19T06:48:35;11.10;;;1.90;;
54871;SDS011;43914;57.680;11.982;2023-09-19T06:51:01;9.20;;;1.70;;
54871;SDS011;43914;57.680;11.982;2023-09-19T06:53:33;11.60;;;1.90;;
54871;SDS011;43914;57.680;11.982;2023-09-19T06:56:00;6.90;;;2.00;;
54871;SDS011;43914;57.680;11.982;2023-09-19T06:58:27;11.70;;;2.20;;
54871;SDS011;43914;57.680;11.982;2023-09-19T07:00:53;10.50;;;1.80;;
54871;SDS011;43914;57.680;11.982;2023-09-19T07:03:19;10.00;;;1.70;;
54871;SDS011;43914;57.680;11.982;2023-09-19T07:05:47;10.30;;;1.80;;
54871;SDS011;43914;57.680;11.982;2023-09-19T07:08:13;10.90;;;1.70;;
54871;SDS011;43914;57.680;11.982;2023-09-19T07:10:41;12.60;;;1.90;;
54871;SDS011;43914;57.680;11.982;2023-09-19T07:13:13;16.10;;;1.90;;
54871;SDS011;43914;57.680;11.982;2023-09-19T07:15:42;9.90;;;2.10;;
54871;SDS011;43914;57.680;11.982;2023-09-19T07:18:15;11.00;;;1.80;;
54871;SDS011;43914;57.680;11.982;2023-09-19T07:20:42;11.80;;;1.70;;
54871;SDS011;43914;57.680;11.982;2023-09-19T07:23:29;8.20;;;1.60;;
54871;SDS011;43914;57.680;11.982;2023-09-19T07:25:58;12.70;;;2.20;;
54871;SDS011;43914;57.680;11.982;2023-09-19T07:28:25;12.40;;;1.90;;
54871;SDS011;43914;57.680;11.982;2023-09-19T07:30:50;9.50;;;2.00;;
54871;SDS011;43914;57.680;11.982;2023-09-19T07:33:16;11.60;;;2.00;;
54871;SDS011;43914;57.680;11.982;2023-09-19T07:35:44;12.60;;;1.80;;
54871;SDS011;43914;57.680;11.982;2023-09-19T07:38:11;14.40;;;2.50;;
54871;SDS011;43914;57.680;11.982;2023-09-19T07:40:36;12.10;;;1.80;;
54871;SDS011;43914;57.680;11.982;2023-09-19T07:43:02;10.80;;;1.70;;
54871;SDS011;43914;57.680;11.982;2023-09-19T07:45:29;9.90;;;1.80;;
54871;SDS011;43914;57.680;11.982;2023-09-19T07:47:56;9.80;;;2.00;;
54871;SDS011;43914;57.680;11.982;2023-09-19T07:50:22;9.70;;;1.80;;
54871;SDS011;43914;57.680;11.982;2023-09-19T07:52:48;9.20;;;1.80;;
54871;SDS011;43914;57.680;11.982;2023-09-19T07:55:18;10.90;;;1.80;;
54871;SDS011;43914;57.680;11.982;2023-09-19T07:57:48;8.80;;;1.90;;
54871;SDS011;43914;57.680;11.982;2023-09-19T08:00:14;10.40;;;2.00;;
54871;SDS011;43914;57.680;11.982;2023-09-19T08:02:40;9.80;;;1.80;;
54871;SDS011;43914;57.680;11.982;2023-09-19T08:05:07;10.10;;;1.90;;
54871;SDS011;43914;57.680;11.982;2023-09-19T08:07:37;14.60;;;2.40;;
54871;SDS011;43914;57.680;11.982;2023-09-19T08:10:04;11.80;;;2.20;;
54871;SDS011;43914;57.680;11.982;2023-09-19T08:12:33;9.00;;;1.60;;
54871;SDS011;43914;57.680;11.982;2023-09-19T08:15:02;11.40;;;2.20;;
54871;SDS011;43914;57.680;11.982;2023-09-19T08:17:28;12.60;;;2.50;;
54871;SDS011;43914;57.680;11.982;2023-09-19T08:19:54;10.60;;;2.00;;
54871;SDS011;43914;57.680;11.982;2023-09-19T08:22:20;10.00;;;2.60;;
54871;SDS011;43914;57.680;11.982;2023-09-19T08:24:47;12.20;;;2.10;;
54871;SDS011;43914;57.680;11.982;2023-09-19T08:27:13;12.60;;;2.30;;
54871;SDS011;43914;57.680;11.982;2023-09-19T08:29:38;12.10;;;2.20;;
54871;SDS011;43914;57.680;11.982;2023-09-19T08:32:04;9.30;;;1.80;;
54871;SDS011;43914;57.680;11.982;2023-09-19T08:34:30;16.20;;;2.40;;
54871;SDS011;43914;57.680;11.982;2023-09-19T08:36:58;12.10;;;2.20;;
54871;SDS011;43914;57.680;11.982;2023-09-19T08:39:24;10.00;;;1.60;;
54871;SDS011;43914;57.680;11.982;2023-09-19T08:42:00;13.30;;;2.50;;
54871;SDS011;43914;57.680;11.982;2023-09-19T08:44:27;12.60;;;2.30;;
54871;SDS011;43914;57.680;11.982;2023-09-19T08:46:55;12.80;;;2.10;;
54871;SDS011;43914;57.680;11.982;2023-09-19T08:52:30;11.00;;;2.30;;
54871;SDS011;43914;57.680;11.982;2023-09-19T08:55:01;13.30;;;1.90;;
54871;SDS011;43914;57.680;11.982;2023-09-19T08:57:35;10.60;;;1.80;;
54871;SDS011;43914;57.680;11.982;2023-09-19T09:00:06;11.40;;;2.00;;
54871;SDS011;43914;57.680;11.982;2023-09-19T09:02:40;9.50;;;1.70;;
54871;SDS011;43914;57.680;11.982;2023-09-19T09:05:09;13.00;;;1.90;;
54871;SDS011;43914;57.680;11.982;2023-09-19T09:07:38;10.30;;;2.30;;
54871;SDS011;43914;57.680;11.982;2023-09-19T09:10:05;9.00;;;2.00;;
54871;SDS011;43914;57.680;11.982;2023-09-19T09:12:36;9.00;;;1.80;;
54871;SDS011;43914;57.680;11.982;2023-09-19T09:15:04;11.10;;;1.90;;
54871;SDS011;43914;57.680;11.982;2023-09-19T09:17:30;9.90;;;1.60;;
54871;SDS011;43914;57.680;11.982;2023-09-19T09:19:56;8.60;;;1.70;;
54871;SDS011;43914;57.680;11.982;2023-09-19T09:22:22;11.40;;;1.70;;
54871;SDS011;43914;57.680;11.982;2023-09-19T09:27:23;10.20;;;1.40;;
54871;SDS011;43914;57.680;11.982;2023-09-19T09:29:50;7.20;;;1.50;;
54871;SDS011;43914;57.680;11.982;2023-09-19T09:34:53;8.10;;;1.80;;
54871;SDS011;43914;57.680;11.982;2023-09-19T09:37:19;7.40;;;1.50;;
54871;SDS011;43914;57.680;11.982;2023-09-19T09:39:49;7.60;;;1.30;;
54871;SDS011;43914;57.680;11.982;2023-09-19T09:42:30;7.40;;;1.20;;
54871;SDS011;43914;57.680;11.982;2023-09-19T09:47:48;9.40;;;1.50;;
54871;SDS011;43914;57.680;11.982;2023-09-19T09:50:28;9.70;;;1.50;;
54871;SDS011;43914;57.680;11.982;2023-09-19T09:53:24;7.90;;;1.40;;
54871;SDS011;43914;57.680;11.982;2023-09-19T09:58:51;10.90;;;1.70;;
54871;SDS011;43914;57.680;11.982;2023-09-19T10:01:21;6.90;;;1.20;;
54871;SDS011;43914;57.680;11.982;2023-09-19T10:03:56;6.50;;;1.10;;
54871;SDS011;43914;57.680;11.982;2023-09-19T10:06:23;8.30;;;2.00;;
54871;SDS011;43914;57.680;11.982;2023-09-19T10:09:02;8.40;;;1.40;;
54871;SDS011;43914;57.680;11.982;2023-09-19T10:11:48;8.80;;;1.40;;
54871;SDS011;43914;57.680;11.982;2023-09-19T10:14:37;9.00;;;1.50;;
54871;SDS011;43914;57.680;11.982;2023-09-19T10:17:04;10.00;;;1.90;;
54871;SDS011;43914;57.680;11.982;2023-09-19T10:19:37;9.70;;;1.50;;
54871;SDS011;43914;57.680;11.982;2023-09-19T10:22:12;6.80;;;1.20;;
54871;SDS011;43914;57.680;11.982;2023-09-19T10:24:46;8.90;;;1.40;;
54871;SDS011;43914;57.680;11.982;2023-09-19T10:27:19;8.20;;;1.40;;
54871;SDS011;43914;57.680;11.982;2023-09-19T10:29:50;6.80;;;1.40;;
54871;SDS011;43914;57.680;11.982;2023-09-19T10:32:21;8.90;;;1.60;;
54871;SDS011;43914;57.680;11.982;2023-09-19T10:34:48;10.60;;;1.50;;
54871;SDS011;43914;57.680;11.982;2023-09-19T10:37:18;7.70;;;1.40;;
54871;SDS011;43914;57.680;11.982;2023-09-19T10:39:47;8.30;;;1.60;;
54871;SDS011;43914;57.680;11.982;2023-09-19T10:42:16;8.90;;;1.70;;
54871;SDS011;43914;57.680;11.982;2023-09-19T10:44:45;7.30;;;1.50;;
54871;SDS011;43914;57.680;11.982;2023-09-19T10:47:19;7.40;;;1.20;;
54871;SDS011;43914;57.680;11.982;2023-09-19T10:49:46;9.50;;;1.30;;
54871;SDS011;43914;57.680;11.982;2023-09-19T10:52:13;8.90;;;2.00;;
54871;SDS011;43914;57.680;11.982;2023-09-19T10:54:45;10.10;;;2.30;;
54871;SDS011;43914;57.680;11.982;2023-09-19T10:57:19;10.00;;;2.20;;
54871;SDS011;43914;57.680;11.982;2023-09-19T11:00:03;9.10;;;1.60;;
54871;SDS011;43914;57.680;11.982;2023-09-19T11:05:40;6.50;;;1.30;;
54871;SDS011;43914;57.680;11.982;2023-09-19T11:08:07;9.70;;;1.50;;
54871;SDS011;43914;57.680;11.982;2023-09-19T11:10:45;8.80;;;1.40;;
54871;SDS011;43914;57.680;11.982;2023-09-19T11:27:08;8.40;;;1.40;;
54871;SDS011;43914;57.680;11.982;2023-09-19T11:29:38;7.70;;;1.20;;
54871;SDS011;43914;57.680;11.982;2023-09-19T11:32:05;7.40;;;1.10;;
54871;SDS011;43914;57.680;11.982;2023-09-19T11:34:38;8.00;;;1.30;;
54871;SDS011;43914;57.680;11.982;2023-09-19T11:39:40;6.70;;;1.30;;
54871;SDS011;43914;57.680;11.982;2023-09-19T11:42:46;5.30;;;1.10;;
54871;SDS011;43914;57.680;11.982;2023-09-19T11:48:15;6.90;;;1.40;;
54871;SDS011;43914;57.680;11.982;2023-09-19T11:50:44;9.70;;;1.20;;
54871;SDS011;43914;57.680;11.982;2023-09-19T11:53:12;8.50;;;1.10;;
54871;SDS011;43914;57.680;11.982;2023-09-19T11:55:39;5.50;;;1.10;;
54871;SDS011;43914;57.680;11.982;2023-09-19T11:58:08;8.40;;;1.30;;
54871;SDS011;43914;57.680;11.982;2023-09-19T12:00:37;8.70;;;1.30;;
54871;SDS011;43914;57.680;11.982;2023-09-19T12:03:08;6.60;;;1.40;;
54871;SDS011;43914;57.680;11.982;2023-09-19T12:05:37;8.00;;;1.20;;
54871;SDS011;43914;57.680;11.982;2023-09-19T12:08:05;8.80;;;1.20;;
54871;SDS011;43914;57.680;11.982;2023-09-19T12:10:49;6.60;;;1.20;;
54871;SDS011;43914;57.680;11.982;2023-09-19T12:13:17;8.10;;;1.40;;
54871;SDS011;43914;57.680;11.982;2023-09-19T12:15:44;7.00;;;1.20;;
54871;SDS011;43914;57.680;11.982;2023-09-19T12:20:56;5.90;;;1.20;;
54871;SDS011;43914;57.680;11.982;2023-09-19T12:23:23;8.20;;;1.70;;
54871;SDS011;43914;57.680;11.982;2023-09-19T12:25:51;10.90;;;2.10;;
54871;SDS011;43914;57.680;11.982;2023-09-19T12:28:19;5.70;;;1.20;;
54871;SDS011;43914;57.680;11.982;2023-09-19T12:30:49;9.60;;;1.90;;
54871;SDS011;43914;57.680;11.982;2023-09-19T12:33:17;8.10;;;1.30;;
54871;SDS011;43914;57.680;11.982;2023-09-19T12:35:50;11.80;;;1.70;;
54871;SDS011;43914;57.680;11.982;2023-09-19T12:38:27;8.90;;;1.80;;
54871;SDS011;43914;57.680;11.982;2023-09-19T12:40:56;9.70;;;1.80;;
54871;SDS011;43914;57.680;11.982;2023-09-19T12:43:25;9.50;;;1.70;;
54871;SDS011;43914;57.680;11.982;2023-09-19T12:45:52;12.90;;;1.50;;
54871;SDS011;43914;57.680;11.982;2023-09-19T12:51:07;9.90;;;1.60;;
54871;SDS011;43914;57.680;11.982;2023-09-19T12:53:43;7.10;;;1.40;;
54871;SDS011;43914;57.680;11.982;2023-09-19T12:56:12;7.20;;;1.30;;
54871;SDS011;43914;57.680;11.982;2023-09-19T12:58:59;10.10;;;1.70;;
54871;SDS011;43914;57.680;11.982;2023-09-19T13:01:28;12.70;;;1.80;;
54871;SDS011;43914;57.680;11.982;2023-09-19T13:07:00;9.80;;;1.40;;
54871;SDS011;43914;57.680;11.982;2023-09-19T13:09:26;11.70;;;1.60;;
54871;SDS011;43914;57.680;11.982;2023-09-19T13:12:04;6.10;;;1.20;;
54871;SDS011;43914;57.680;11.982;2023-09-19T13:15:07;12.70;;;1.80;;
54871;SDS011;43914;57.680;11.982;2023-09-19T13:17:48;12.80;;;1.90;;
54871;SDS011;43914;57.680;11.982;2023-09-19T13:20:53;9.50;;;1.60;;
54871;SDS011;43914;57.680;11.982;2023-09-19T13:23:26;10.00;;;1.30;;
54871;SDS011;43914;57.680;11.982;2023-09-19T13:25:53;6.20;;;1.20;;
54871;SDS011;43914;57.680;11.982;2023-09-19T13:28:19;7.80;;;1.40;;
54871;SDS011;43914;57.680;11.982;2023-09-19T13:30:44;10.50;;;1.50;;
54871;SDS011;43914;57.680;11.982;2023-09-19T13:33:11;8.50;;;1.80;;
54871;SDS011;43914;57.680;11.982;2023-09-19T13:35:44;6.60;;;1.40;;
54871;SDS011;43914;57.680;11.982;2023-09-19T13:38:10;7.40;;;1.30;;
54871;SDS011;43914;57.680;11.982;2023-09-19T13:40:36;7.20;;;1.40;;
54871;SDS011;43914;57.680;11.982;2023-09-19T13:43:06;8.40;;;1.40;;
54871;SDS011;43914;57.680;11.982;2023-09-19T13:45:33;6.90;;;1.30;;
54871;SDS011;43914;57.680;11.982;2023-09-19T13:47:59;10.40;;;1.60;;
54871;SDS011;43914;57.680;11.982;2023-09-19T13:50:24;8.70;;;1.30;;
54871;SDS011;43914;57.680;11.982;2023-09-19T13:52:51;10.00;;;1.40;;
54871;SDS011;43914;57.680;11.982;2023-09-19T13:55:18;7.80;;;1.30;;
54871;SDS011;43914;57.680;11.982;2023-09-19T13:57:48;10.20;;;1.50;;
54871;SDS011;43914;57.680;11.982;2023-09-19T14:00:24;7.80;;;1.40;;
54871;SDS011;43914;57.680;11.982;2023-09-19T14:02:49;9.40;;;1.40;;
54871;SDS011;43914;57.680;11.982;2023-09-19T14:05:16;8.80;;;1.40;;
54871;SDS011;43914;57.680;11.982;2023-09-19T14:07:42;8.90;;;1.50;;
54871;SDS011;43914;57.680;11.982;2023-09-19T14:10:08;12.40;;;1.70;;
54871;SDS011;43914;57.680;11.982;2023-09-19T14:12:39;8.00;;;1.40;;
54871;SDS011;43914;57.680;11.982;2023-09-19T14:15:06;9.70;;;1.30;;
54871;SDS011;43914;57.680;11.982;2023-09-19T14:17:35;10.80;;;1.70;;
54871;SDS011;43914;57.680;11.982;2023-09-19T14:20:01;11.70;;;1.60;;
54871;SDS011;43914;57.680;11.982;2023-09-19T14:22:26;10.10;;;1.80;;
54871;SDS011;43914;57.680;11.982;2023-09-19T14:24:52;6.20;;;1.30;;
54871;SDS011;43914;57.680;11.982;2023-09-19T14:27:18;11.80;;;1.80;;
54871;SDS011;43914;57.680;11.982;2023-09-19T14:29:44;10.10;;;1.70;;
54871;SDS011;43914;57.680;11.982;2023-09-19T14:32:10;8.70;;;1.40;;
54871;SDS011;43914;57.680;11.982;2023-09-19T14:34:36;8.00;;;1.50;;
54871;SDS011;43914;57.680;11.982;2023-09-19T14:37:10;7.70;;;1.30;;
54871;SDS011;43914;57.680;11.982;2023-09-19T14:39:40;7.10;;;1.60;;
54871;SDS011;43914;57.680;11.982;2023-09-19T14:42:10;11.50;;;1.80;;
54871;SDS011;43914;57.680;11.982;2023-09-19T14:44:36;11.30;;;2.00;;
54871;SDS011;43914;57.680;11.982;2023-09-19T14:47:05;11.30;;;2.10;;
54871;SDS011;43914;57.680;11.982;2023-09-19T14:49:35;10.10;;;1.50;;
54871;SDS011;43914;57.680;11.982;2023-09-19T14:52:06;11.50;;;1.90;;
54871;SDS011;43914;57.680;11.982;2023-09-19T14:54:33;10.40;;;1.70;;
54871;SDS011;43914;57.680;11.982;2023-09-19T14:56:59;13.90;;;2.30;;
54871;SDS011;43914;57.680;11.982;2023-09-19T14:59:33;9.50;;;1.70;;
54871;SDS011;43914;57.680;11.982;2023-09-19T15:02:06;7.50;;;1.60;;
54871;SDS011;43914;57.680;11.982;2023-09-19T15:04:32;9.20;;;1.70;;
54871;SDS011;43914;57.680;11.982;2023-09-19T15:06:58;9.40;;;1.90;;
54871;SDS011;43914;57.680;11.982;2023-09-19T15:09:25;9.00;;;1.60;;
54871;SDS011;43914;57.680;11.982;2023-09-19T15:11:54;7.50;;;1.60;;
54871;SDS011;43914;57.680;11.982;2023-09-19T15:14:22;9.80;;;2.00;;
54871;SDS011;43914;57.680;11.982;2023-09-19T15:16:47;8.20;;;1.70;;
54871;SDS011;43914;57.680;11.982;2023-09-19T15:19:14;10.40;;;1.50;;
54871;SDS011;43914;57.680;11.982;2023-09-19T15:21:40;10.90;;;1.80;;
54871;SDS011;43914;57.680;11.982;2023-09-19T15:24:06;9.70;;;1.60;;
54871;SDS011;43914;57.680;11.982;2023-09-19T15:26:37;12.90;;;1.70;;